Latest Weather Observations for Kadina

IDS60801

Issued at 11:01 pm CST Saturday 27 May 2017 (issued every 30 minutes, with the page automatically refreshed every 10 minutes)

About weather observations | Map of weather stations | Latest weather observations for SA | Other Formats
Station Details ID: 022050 Name: KADINA AWS Lat: -33.97 Lon: 137.66 Height: 41.14 m
Data from the previous 72 hours. | See also: Recent months at Kadina
Date/Time
CST
Temp
°C
App
Temp
°C
Dew
Point
°C
Rel
Hum
%
Delta-T
°C
Wind Press
QNH
hPa
Press
MSL
hPa
Rain since
9am
mm
Dir  Spd
km/h
Gust
km/h
Spd
kts
Gust
kts
27/11:00pm 12.9 8.8 8.6 75 2.1 WSW 20 28 11 15 1015.3 1015.3 1.8
27/10:30pm 13.0 8.2 8.7 75 2.2 WSW 24 32 13 17 1015.1 1015.1 1.8
27/10:00pm 13.3 9.7 9.7 79 1.8 WSW 19 26 10 14 1015.0 1015.0 1.8
27/09:30pm 13.1 9.3 9.9 81 1.6 WSW 20 30 11 16 1014.9 1014.9 1.8
27/09:00pm 13.2 9.5 10.2 82 1.6 WSW 20 24 11 13 1014.8 1014.8 1.8
27/08:30pm 13.1 9.5 10.5 84 1.4 WSW 20 28 11 15 1014.4 1014.4 1.8
27/08:00pm 13.3 8.4 11.2 87 1.1 WSW 28 35 15 19 1014.1 1014.1 1.8
27/07:30pm 13.4 7.4 12.0 91 0.8 WSW 35 46 19 25 1013.9 1013.9 1.6
27/07:26pm 13.1 7.3 11.5 90 0.9 WSW 33 44 18 24 1013.9 1013.9 1.6
27/07:07pm 15.0 9.5 11.8 81 1.7 W 32 52 17 28 1013.4 1013.4 0.4
27/07:00pm 15.0 10.0 12.1 83 1.6 W 30 35 16 19 1013.3 1013.3 0.4
27/06:30pm 14.3 10.6 12.7 90 0.9 W 24 30 13 16 1013.2 1013.2 0.4
27/06:00pm 14.6 8.8 11.4 81 1.7 WSW 33 48 18 26 1012.8 1012.8 0.2
27/05:30pm 14.6 10.2 11.7 83 1.6 WSW 26 33 14 18 1012.5 1012.5 0.2
27/05:08pm 16.2 10.8 12.2 77 2.2 WSW 32 56 17 30 1012.4 1012.4 0.2
27/05:00pm 16.1 12.5 13.2 83 1.6 WSW 24 32 13 17 1012.4 1012.4 0.2
27/04:30pm 16.3 12.7 13.2 82 1.7 WSW 24 33 13 18 1012.2 1012.2 0.2
27/04:00pm 16.9 14.2 13.4 80 2.0 W 20 30 11 16 1012.0 1012.0 0.2
27/03:30pm 16.8 14.2 13.7 82 1.8 WSW 20 30 11 16 1011.7 1011.7 0.2
27/03:00pm 20.3 15.4 10.1 52 5.5 WNW 26 37 14 20 1011.2 1011.2 0.0
27/02:30pm 21.0 16.1 8.6 45 6.5 NW 24 32 13 17 1011.2 1011.2 0.0
27/02:00pm 21.0 16.4 8.3 44 6.7 NW 22 28 12 15 1011.5 1011.5 0.0
27/01:30pm 19.9 16.5 9.2 50 5.7 NW 17 26 9 14 1012.0 1012.0 0.0
27/01:00pm 19.2 15.4 9.7 54 5.1 NW 20 30 11 16 1012.4 1012.4 0.0
27/12:30pm 19.7 15.0 9.3 51 5.5 WNW 24 30 13 16 1012.9 1012.9 0.0
27/12:00pm 19.3 15.4 9.5 53 5.2 NNW 20 30 11 16 1013.4 1013.4 0.0
27/11:30am 18.3 13.6 9.4 56 4.7 NNW 24 28 13 15 1013.8 1013.8 0.0
27/11:00am 18.0 12.5 9.1 56 4.6 NNW 28 37 15 20 1014.3 1014.3 0.0
27/10:30am 18.3 12.0 9.1 55 4.8 NNW 32 37 17 20 1014.4 1014.4 0.0
27/10:00am 18.3 12.2 9.6 57 4.6 NNW 32 39 17 21 1014.4 1014.4 0.0
27/09:30am 17.9 11.9 10.0 60 4.2 NNW 32 39 17 21 1014.6 1014.6 0.0
27/09:00am 16.9 12.2 10.5 66 3.4 N 26 33 14 18 1014.7 1014.7 0.0
27/08:30am 15.0 11.5 10.2 73 2.5 N 19 20 10 11 1015.0 1015.0 0.0
27/08:00am 14.5 10.9 9.9 74 2.4 N 19 24 10 13 1015.1 1015.1 0.0
27/07:30am 14.8 10.3 10.2 74 2.4 N 24 28 13 15 1014.8 1014.8 0.0
27/07:00am 14.8 9.6 10.4 75 2.3 N 28 33 15 18 1014.6 1014.6 0.0
27/06:30am 15.1 10.1 11.1 77 2.1 N 28 33 15 18 1014.3 1014.3 0.0
27/06:00am 12.7 9.1 10.6 87 1.1 NNE 20 24 11 13 1014.3 1014.3 0.0
27/05:30am 13.5 10.4 10.3 81 1.7 NNE 17 22 9 12 1014.2 1014.2 0.0
27/05:00am 13.6 10.5 10.4 81 1.7 N 17 24 9 13 1014.3 1014.3 0.0
27/04:30am 12.0 8.0 9.0 82 1.5 NNE 20 24 11 13 1014.4 1014.4 0.0
27/04:00am 11.6 7.5 8.8 83 1.4 NNE 20 22 11 12 1014.6 1014.6 0.0
27/03:30am 11.3 7.4 8.5 83 1.4 NNE 19 22 10 12 1014.8 1014.8 0.0
27/03:00am 11.1 6.9 8.3 83 1.4 NNE 20 20 11 11 1015.0 1015.0 0.0
27/02:30am 10.7 7.0 7.8 82 1.4 NNE 17 20 9 11 1015.3 1015.3 0.0
27/02:00am 10.9 7.1 7.4 79 1.7 NNE 17 19 9 10 1015.5 1015.5 0.0
27/01:30am 11.1 6.8 7.2 77 1.9 NNE 19 20 10 11 1015.6 1015.6 0.0
27/01:00am 11.5 7.8 7.8 78 1.8 NNE 17 20 9 11 1016.0 1016.0 0.0
27/12:30am 11.3 7.9 7.8 79 1.7 NNE 15 19 8 10 1016.2 1016.2 0.0
27/12:00am 11.0 6.8 7.5 79 1.7 NE 19 20 10 11 1016.2 1016.2 0.0
 
Date/Time
CST
Temp
°C
App
Temp
°C
Dew
Point
°C
Rel
Hum
%
Delta-T
°C
Wind Press
QNH
hPa
Press
MSL
hPa
Rain since
9am
mm
Dir  Spd
km/h
Gust
km/h
Spd
kts
Gust
kts
26/11:30pm 11.8 7.8 8.1 78 1.8 NNE 19 20 10 11 1016.4 1016.4 0.0
26/11:00pm 11.8 7.8 8.1 78 1.8 NNE 19 20 10 11 1016.8 1016.8 0.0
26/10:30pm 12.1 8.0 8.0 76 2.0 NNE 19 20 10 11 1017.0 1017.0 0.0
26/10:00pm 12.0 8.1 7.3 73 2.3 NNE 17 19 9 10 1017.2 1017.2 0.0
26/09:30pm 12.9 8.7 7.6 70 2.6 NNE 19 20 10 11 1017.4 1017.4 0.0
26/09:00pm 12.9 8.9 8.2 73 2.3 NNE 19 20 10 11 1017.4 1017.4 0.0
26/08:30pm 13.2 9.1 7.9 70 2.6 NNE 19 20 10 11 1017.3 1017.3 0.0
26/08:00pm 14.6 10.6 8.1 65 3.3 N 19 20 10 11 1017.3 1017.3 0.0
26/07:30pm 14.4 10.1 7.9 65 3.2 NNE 20 22 11 12 1017.2 1017.2 0.0
26/07:00pm 14.3 10.1 7.6 64 3.3 NNE 19 20 10 11 1017.3 1017.3 0.0
26/06:30pm 14.5 10.6 7.3 62 3.5 NNE 17 19 9 10 1017.4 1017.4 0.0
26/06:00pm 15.3 11.4 7.3 59 4.0 NNE 17 19 9 10 1017.3 1017.3 0.0
26/05:30pm 16.7 13.2 7.1 53 4.8 NNE 15 17 8 9 1017.2 1017.2 0.0
26/05:00pm 18.9 14.7 7.4 47 5.8 NNE 19 24 10 13 1017.2 1017.2 0.0
26/04:30pm 20.3 15.0 7.0 42 6.8 N 24 28 13 15 1017.4 1017.4 0.0
26/04:00pm 20.9 15.3 7.2 41 7.0 N 26 32 14 17 1017.4 1017.4 0.0
26/03:30pm 21.4 15.5 7.6 41 7.1 N 28 35 15 19 1017.5 1017.5 0.0
26/03:00pm 21.5 15.3 6.2 37 7.7 N 28 35 15 19 1017.6 1017.6 0.0
26/02:30pm 21.3 15.6 6.8 39 7.4 N 26 33 14 18 1017.8 1017.8 0.0
26/02:00pm 21.4 16.5 8.3 43 6.9 N 24 35 13 19 1018.1 1018.1 0.0
26/01:30pm 20.8 16.0 8.8 46 6.3 N 24 30 13 16 1018.6 1018.6 0.0
26/01:00pm 20.6 15.3 8.6 46 6.3 N 26 35 14 19 1019.2 1019.2 0.0
26/12:30pm 20.6 15.2 9.5 49 5.9 N 28 35 15 19 1019.5 1019.5 0.0
26/12:00pm 19.9 14.3 10.0 53 5.3 N 30 39 16 21 1020.1 1020.1 0.0
26/11:30am 19.8 15.1 10.5 55 5.0 N 26 32 14 17 1020.9 1020.9 0.0
26/11:00am 18.9 14.5 10.5 58 4.5 N 24 30 13 16 1021.1 1021.1 0.0
26/10:30am 18.7 15.4 9.5 55 4.8 N 17 22 9 12 1021.5 1021.5 0.0
26/10:00am 17.5 14.9 9.4 59 4.2 NNE 13 19 7 10 1021.8 1021.8 0.0
26/09:30am 15.6 13.2 9.9 69 3.0 NE 13 17 7 9 1022.0 1022.0 0.0
26/09:00am 14.1 11.5 9.5 74 2.4 NE 13 17 7 9 1022.2 1022.2 0.0
26/08:30am 11.0 9.8 9.4 90 0.8 ENE 6 9 3 5 1022.2 1022.2 0.0
26/08:00am 7.6 5.2 6.9 95 0.3 ENE 9 9 5 5 1022.1 1022.1 0.0
26/07:30am 5.4 2.5 4.7 95 0.3 E 9 9 5 5 1021.9 1021.9 0.0
26/07:00am 5.5 2.6 4.8 95 0.3 E 9 11 5 6 1021.7 1021.7 0.0
26/06:30am 5.9 2.7 5.2 95 0.3 ESE 11 13 6 7 1021.5 1021.5 0.0
26/06:00am 6.1 3.3 5.2 94 0.4 E 9 11 5 6 1021.3 1021.3 0.0
26/05:30am 6.8 3.8 5.9 94 0.4 ENE 11 11 6 6 1021.3 1021.3 0.0
26/05:00am 6.7 4.0 5.8 94 0.4 ENE 9 9 5 5 1021.3 1021.3 0.0
26/04:30am 7.1 4.5 6.0 93 0.5 ENE 9 11 5 6 1021.2 1021.2 0.0
26/04:00am 7.2 4.6 6.0 92 0.5 E 9 11 5 6 1021.4 1021.4 0.0
26/03:30am 7.9 5.4 6.5 91 0.6 ESE 9 9 5 5 1021.4 1021.4 0.0
26/03:00am 8.2 5.6 6.3 88 0.9 E 9 11 5 6 1021.6 1021.6 0.0
26/02:30am 9.0 6.7 7.3 89 0.8 E 9 11 5 6 1021.8 1021.8 0.0
26/02:00am 7.0 3.9 5.6 91 0.6 ESE 11 11 6 6 1021.8 1021.8 0.0
26/01:30am 7.1 4.0 5.4 89 0.8 ESE 11 13 6 7 1021.8 1021.8 0.0
26/01:00am 7.4 4.0 5.7 89 0.8 ESE 13 15 7 8 1022.0 1022.0 0.0
26/12:30am 8.0 4.6 6.1 88 0.9 ESE 13 15 7 8 1022.2 1022.2 0.0
26/12:00am 8.7 6.5 6.0 83 1.2 ENE 7 9 4 5 1022.1 1022.1 0.0
 
Date/Time
CST
Temp
°C
App
Temp
°C
Dew
Point
°C
Rel
Hum
%
Delta-T
°C
Wind Press
QNH
hPa
Press
MSL
hPa
Rain since
9am
mm
Dir  Spd
km/h
Gust
km/h
Spd
kts
Gust
kts
25/11:30pm 10.2 8.3 7.4 83 1.3 ENE 7 7 4 4 1022.3 1022.3 0.0
25/11:00pm 9.9 7.6 7.5 85 1.1 ENE 9 11 5 6 1022.4 1022.4 0.0
25/10:30pm 8.7 5.8 6.5 86 1.0 ESE 11 13 6 7 1022.5 1022.5 0.0
25/10:00pm 8.3 4.9 6.1 86 1.0 ESE 13 17 7 9 1022.6 1022.6 0.0
25/09:30pm 9.3 7.4 6.7 84 1.2 ENE 6 7 3 4 1022.5 1022.5 0.0
25/09:00pm 10.5 8.7 7.2 80 1.6 N 6 9 3 5 1022.3 1022.3 0.0
25/08:30pm 11.5 9.9 8.2 80 1.6 NNE 6 9 3 5 1022.2 1022.2 0.0
25/08:00pm 12.7 10.4 9.0 78 1.9 N 11 13 6 7 1022.0 1022.0 0.0
25/07:30pm 12.1 10.3 8.0 76 2.0 N 7 7 4 4 1022.1 1022.1 0.0
25/07:00pm 13.4 13.1 8.5 72 2.5 CALM 0 6 0 3 1021.8 1021.8 0.0
25/06:30pm 12.7 10.7 7.2 69 2.7 SSE 7 9 4 5 1021.5 1021.5 0.0
25/06:00pm 14.6 13.0 8.1 65 3.2 SSE 6 7 3 4 1021.2 1021.2 0.0
25/05:30pm 16.2 14.1 8.4 60 4.0 S 9 9 5 5 1021.0 1021.0 0.0
25/05:00pm 18.0 16.0 8.8 55 4.8 SSW 9 11 5 6 1020.9 1020.9 0.0
25/04:30pm 19.2 16.5 8.8 51 5.4 SW 13 19 7 10 1020.8 1020.8 0.0
25/04:00pm 19.8 17.2 9.4 51 5.5 WSW 13 17 7 9 1020.9 1020.9 0.0
25/03:30pm 19.7 15.9 9.0 50 5.6 WSW 19 22 10 12 1020.9 1020.9 0.0
25/03:00pm 19.6 16.5 8.9 50 5.6 WSW 15 24 8 13 1020.8 1020.8 0.0
25/02:30pm 20.0 15.7 9.3 50 5.7 W 22 28 12 15 1020.9 1020.9 0.0
25/02:00pm 19.7 15.7 9.0 50 5.6 W 20 32 11 17 1021.2 1021.2 0.0
25/01:30pm 19.5 15.4 8.5 49 5.7 WNW 20 32 11 17 1021.6 1021.6 0.0
25/01:00pm 19.4 16.2 10.1 55 5.0 WNW 17 24 9 13 1021.7 1021.7 0.0
25/12:30pm 18.7 15.5 9.8 56 4.7 NW 17 22 9 12 1022.1 1022.1 0.0
25/12:00pm 18.9 15.4 10.2 57 4.6 NW 19 24 10 13 1022.5 1022.5 0.0
25/11:30am 18.3 15.2 10.4 60 4.2 NW 17 20 9 11 1022.7 1022.7 0.0
25/11:00am 17.8 14.9 11.1 65 3.6 NW 17 22 9 12 1022.9 1022.9 0.0
25/10:30am 17.6 14.6 11.9 69 3.1 NW 19 24 10 13 1023.0 1023.0 0.0
25/10:00am 17.3 15.6 12.4 73 2.7 NNW 13 19 7 10 1022.9 1022.9 0.0
25/09:30am 15.8 14.7 13.1 84 1.5 NE 11 15 6 8 1022.7 1022.7 0.0
25/09:00am 14.4 14.1 12.6 89 1.0 NE 6 9 3 5 1022.8 1022.8 -
25/08:30am 12.3 11.2 11.8 97 0.3 NE 9 11 5 6 1022.7 1022.7 -
25/08:00am 9.7 7.5 9.2 97 0.2 NNE 11 11 6 6 1022.6 1022.6 -
25/07:30am 7.3 4.8 6.7 96 0.3 NE 9 11 5 6 1022.3 1022.3 -
25/07:00am 7.3 4.8 6.6 95 0.3 ENE 9 11 5 6 1022.0 1022.0 -
25/06:30am 9.7 8.3 8.9 95 0.4 NNE 6 7 3 4 1021.8 1021.8 -
25/06:00am 10.5 8.0 9.7 95 0.4 N 13 13 7 7 1021.8 1021.8 -
25/05:30am 10.6 7.4 9.8 95 0.4 N 17 19 9 10 1021.4 1021.4 -
25/05:00am 10.8 7.6 10.0 95 0.4 N 17 17 9 9 1021.3 1021.3 -
25/04:30am 11.1 8.5 10.6 97 0.3 NNE 15 19 8 10 1021.2 1021.2 -
25/04:00am 9.0 5.7 8.2 95 0.4 NNE 15 15 8 8 1021.2 1021.2 -
25/03:30am 9.0 8.2 8.1 94 0.4 NNE 2 9 1 5 1021.5 1021.5 -
25/03:00am 11.0 8.6 10.2 95 0.4 NNE 13 15 7 8 1021.3 1021.3 0.0
25/02:30am 10.5 8.7 9.4 93 0.5 ENE 9 9 5 5 1021.2 1021.2 -
25/02:00am 11.3 10.2 9.9 91 0.7 ENE 6 9 3 5 1021.4 1021.4 -
25/01:30am 10.5 8.6 9.1 91 0.7 ENE 9 11 5 6 1021.5 1021.5 -
25/01:00am 10.4 8.8 8.8 90 0.8 E 7 9 4 5 1021.6 1021.6 -
25/12:30am 10.9 9.0 9.2 89 0.8 E 9 9 5 5 1021.7 1021.7 -
25/12:00am 11.1 9.6 9.2 88 0.9 E 7 9 4 5 1022.0 1022.0 -
 
Date/Time
CST
Temp
°C
App
Temp
°C
Dew
Point
°C
Rel
Hum
%
Delta-T
°C
Wind Press
QNH
hPa
Press
MSL
hPa
Rain since
9am
mm
Dir  Spd
km/h
Gust
km/h
Spd
kts
Gust
kts
24/11:30pm 11.0 9.7 9.1 88 0.9 ENE 6 7 3 4 1022.2 1022.2 -

Other Formats:

Comma delimited format used in spreadsheet applications
http://www.bom.gov.au/fwo/IDS60801/IDS60801.94685.axf

JavaScript Object Notation format (JSON) in row-major order
http://www.bom.gov.au/fwo/IDS60801/IDS60801.94685.json